createdAt,value
2018-09-15T00:01:13.012Z,7.47
2018-09-15T00:03:41.264Z,10.37
2018-09-15T00:06:09.537Z,11.47
2018-09-15T00:08:37.954Z,8.90
2018-09-15T00:11:06.226Z,8.63
2018-09-15T00:13:34.483Z,7.87
2018-09-15T00:16:02.746Z,8.07
2018-09-15T00:18:31.035Z,9.03
2018-09-15T00:20:59.299Z,8.73
2018-09-15T00:23:27.554Z,8.47
2018-09-15T00:25:55.806Z,13.43
2018-09-15T00:28:24.859Z,7.63
2018-09-15T00:30:53.123Z,8.73
2018-09-15T00:33:22.391Z,7.53
2018-09-15T00:35:50.651Z,7.40
2018-09-15T00:38:19.683Z,7.10
2018-09-15T00:40:47.955Z,7.17
2018-09-15T00:43:16.212Z,8.40
2018-09-15T00:45:44.452Z,7.83
2018-09-15T00:48:12.697Z,10.33
2018-09-15T00:50:40.950Z,7.43
2018-09-15T00:53:09.255Z,7.30
2018-09-15T00:55:37.651Z,9.37
2018-09-15T00:58:05.910Z,7.57
2018-09-15T01:00:34.183Z,7.50
2018-09-15T01:03:02.453Z,7.80
2018-09-15T01:05:30.703Z,7.50
2018-09-15T01:07:58.967Z,8.57
2018-09-15T01:10:27.220Z,9.43
2018-09-15T01:12:56.237Z,7.90
2018-09-15T01:15:24.485Z,8.37
2018-09-15T01:17:53.817Z,11.60
2018-09-15T01:20:22.062Z,8.57
2018-09-15T01:22:51.094Z,8.23
2018-09-15T01:25:19.352Z,8.90
2018-09-15T01:27:47.612Z,7.83
2018-09-15T01:30:16.622Z,8.80
2018-09-15T01:32:44.871Z,8.67
2018-09-15T01:35:13.983Z,7.73
2018-09-15T01:37:42.205Z,10.80
2018-09-15T01:40:10.462Z,7.83
2018-09-15T01:42:38.780Z,9.03
2018-09-15T01:45:07.776Z,6.93
2018-09-15T01:47:36.784Z,6.50
2018-09-15T01:50:06.105Z,7.27
2018-09-15T01:52:34.350Z,7.67
2018-09-15T01:55:03.353Z,6.27
2018-09-15T01:57:31.646Z,11.67
2018-09-15T02:00:00.659Z,7.67
2018-09-15T02:02:28.891Z,6.90
2018-09-15T02:04:57.898Z,7.23
2018-09-15T02:07:26.345Z,7.13
2018-09-15T02:09:54.562Z,7.47
2018-09-15T02:12:22.850Z,6.57
2018-09-15T02:14:51.110Z,7.67
2018-09-15T02:17:19.525Z,7.80
2018-09-15T02:19:47.779Z,9.70
2018-09-15T02:22:16.014Z,6.33
2018-09-15T02:24:44.280Z,6.13
2018-09-15T02:27:13.332Z,7.33
2018-09-15T02:29:41.592Z,7.77
2018-09-15T02:32:09.938Z,7.40
2018-09-15T02:34:39.146Z,10.93
2018-09-15T02:37:07.398Z,6.90
2018-09-15T02:39:36.410Z,6.53
2018-09-15T02:42:04.662Z,6.90
2018-09-15T02:44:33.673Z,8.90
2018-09-15T02:47:02.682Z,7.13
2018-09-15T02:49:30.943Z,7.77
2018-09-15T02:51:59.195Z,6.23
2018-09-15T02:54:28.214Z,8.70
2018-09-15T02:56:56.467Z,6.93
2018-09-15T02:59:25.680Z,7.37
2018-09-15T03:01:54.018Z,7.03
2018-09-15T03:04:22.266Z,7.63
2018-09-15T03:06:50.524Z,6.10
2018-09-15T03:09:18.760Z,5.60
2018-09-15T03:11:47.774Z,9.77
2018-09-15T03:14:16.044Z,5.03
2018-09-15T03:16:44.298Z,5.80
2018-09-15T03:19:13.314Z,4.40
2018-09-15T03:21:41.578Z,6.63
2018-09-15T03:24:10.589Z,6.57
2018-09-15T03:26:39.088Z,6.80
2018-09-15T03:29:07.339Z,5.97
2018-09-15T03:31:35.591Z,7.73
2018-09-15T03:34:04.614Z,5.73
2018-09-15T03:36:32.857Z,5.20
2018-09-15T03:39:01.870Z,5.87
2018-09-15T03:41:30.157Z,6.23
2018-09-15T03:43:59.454Z,6.20
2018-09-15T03:46:27.704Z,5.47
2018-09-15T03:48:56.703Z,6.03
2018-09-15T03:51:25.722Z,7.63
2018-09-15T03:53:54.739Z,6.27
2018-09-15T03:56:23.003Z,5.97
2018-09-15T03:58:51.249Z,5.93
2018-09-15T04:01:19.499Z,4.60
2018-09-15T04:03:47.858Z,4.97
2018-09-15T04:06:16.103Z,4.80
2018-09-15T04:08:44.351Z,6.53
2018-09-15T04:11:12.607Z,6.17
2018-09-15T04:13:41.651Z,4.53
2018-09-15T04:16:09.883Z,4.30
2018-09-15T04:18:39.022Z,6.07
2018-09-15T04:21:07.259Z,5.07
2018-09-15T04:23:35.511Z,5.67
2018-09-15T04:26:03.757Z,5.17
2018-09-15T04:28:32.077Z,5.07
2018-09-15T04:31:00.276Z,5.13
2018-09-15T04:33:28.529Z,4.43
2018-09-15T04:35:56.786Z,3.70
2018-09-15T04:38:25.902Z,3.60
2018-09-15T04:40:54.160Z,4.30
2018-09-15T04:43:23.171Z,5.40
2018-09-15T04:45:51.542Z,5.00
2018-09-15T04:48:20.542Z,4.00
2018-09-15T04:50:48.792Z,3.20
2018-09-15T04:53:17.054Z,4.13
2018-09-15T04:55:45.320Z,3.80
2018-09-15T04:58:13.579Z,4.50
2018-09-15T05:00:41.824Z,2.67
2018-09-15T05:03:10.106Z,3.87
2018-09-15T05:05:38.365Z,3.93
2018-09-15T05:08:06.648Z,3.80
2018-09-15T05:10:35.674Z,5.70
2018-09-15T05:13:03.929Z,3.07
2018-09-15T05:15:32.190Z,3.97
2018-09-15T05:18:00.462Z,4.93
2018-09-15T05:20:28.812Z,4.20
2018-09-15T05:22:57.832Z,4.53
2018-09-15T05:25:26.084Z,6.10
2018-09-15T05:27:55.311Z,7.67
2018-09-15T05:30:23.568Z,5.07
2018-09-15T05:32:52.582Z,6.47
2018-09-15T05:35:20.841Z,4.77
2018-09-15T05:37:49.091Z,5.17
2018-09-15T05:40:17.349Z,5.07
2018-09-15T05:42:45.597Z,3.87
2018-09-15T05:45:13.867Z,3.93
2018-09-15T05:47:42.108Z,4.30
2018-09-15T05:50:11.133Z,4.80
2018-09-15T05:52:39.731Z,5.57
2018-09-15T05:55:07.962Z,6.60
2018-09-15T05:57:36.201Z,5.13
2018-09-15T06:00:04.901Z,7.07
2018-09-15T06:02:33.938Z,5.87
2018-09-15T06:05:02.507Z,6.37
2018-09-15T06:07:30.774Z,6.40
2018-09-15T06:09:58.982Z,6.27
2018-09-15T06:12:27.261Z,6.33
2018-09-15T06:14:55.582Z,6.13
2018-09-15T06:17:23.808Z,9.40
2018-09-15T06:19:52.052Z,5.80
2018-09-15T06:22:20.322Z,6.57
2018-09-15T06:24:48.564Z,7.03
2018-09-15T06:27:16.825Z,6.40
2018-09-15T06:29:45.086Z,7.40
2018-09-15T06:32:13.354Z,6.27
2018-09-15T06:34:41.615Z,6.37
2018-09-15T06:37:09.875Z,8.40
2018-09-15T06:39:38.113Z,12.00
2018-09-15T06:42:06.741Z,6.77
2018-09-15T06:44:34.986Z,8.37
2018-09-15T06:47:04.012Z,7.93
2018-09-15T06:49:32.586Z,8.60
2018-09-15T06:52:00.826Z,7.50
2018-09-15T06:54:29.924Z,9.10
2018-09-15T06:56:58.141Z,7.47
2018-09-15T06:59:26.398Z,8.53
2018-09-15T07:01:54.663Z,7.40
2018-09-15T07:04:23.926Z,8.23
2018-09-15T07:06:52.265Z,10.70
2018-09-15T07:09:21.051Z,8.60
2018-09-15T07:11:49.315Z,8.33
2018-09-15T07:14:17.777Z,7.93
2018-09-15T07:16:46.787Z,9.30
2018-09-15T07:19:15.046Z,7.43
2018-09-15T07:21:44.084Z,15.43
2018-09-15T07:24:12.336Z,8.27
2018-09-15T07:26:40.581Z,7.77
2018-09-15T07:29:09.619Z,9.23
2018-09-15T07:31:38.081Z,7.80
2018-09-15T07:34:06.329Z,8.03
2018-09-15T07:36:35.333Z,8.80
2018-09-15T07:39:03.608Z,8.93
2018-09-15T07:41:32.923Z,10.77
2018-09-15T07:44:01.158Z,7.80
2018-09-15T07:46:29.410Z,9.47
2018-09-15T07:48:57.687Z,9.30
2018-09-15T07:51:25.937Z,7.20
2018-09-15T07:53:54.205Z,5.73
2018-09-15T07:56:22.459Z,7.90
2018-09-15T07:58:51.462Z,12.90
2018-09-15T08:01:19.730Z,9.17
2018-09-15T08:03:47.985Z,9.30
2018-09-15T08:06:17.002Z,9.07
2018-09-15T08:08:45.493Z,10.47
2018-09-15T08:11:13.753Z,12.07
2018-09-15T08:13:42.002Z,10.47
2018-09-15T08:16:11.065Z,10.37
2018-09-15T08:18:39.334Z,14.40
2018-09-15T08:21:07.599Z,11.30
2018-09-15T08:23:35.839Z,8.63
2018-09-15T08:26:04.105Z,9.07
2018-09-15T08:28:33.147Z,9.50
2018-09-15T08:31:01.404Z,9.40
2018-09-15T08:33:29.814Z,10.40
2018-09-15T08:35:58.073Z,10.37
2018-09-15T08:38:26.322Z,8.97
2018-09-15T08:40:54.578Z,11.03
2018-09-15T08:43:22.825Z,8.47
2018-09-15T08:45:51.259Z,7.73
2018-09-15T08:48:19.585Z,11.47
2018-09-15T08:50:47.781Z,6.97
2018-09-15T08:53:16.798Z,7.50
2018-09-15T08:55:45.047Z,9.53
2018-09-15T08:58:14.076Z,7.73
2018-09-15T09:00:42.366Z,9.67
2018-09-15T09:03:10.599Z,8.73
2018-09-15T09:05:38.866Z,9.67
2018-09-15T09:08:07.931Z,9.60
2018-09-15T09:10:36.210Z,10.10
2018-09-15T09:13:04.443Z,9.17
2018-09-15T09:15:32.698Z,5.97
2018-09-15T09:18:00.976Z,12.13
2018-09-15T09:20:29.233Z,10.87
2018-09-15T09:22:58.276Z,12.20
2018-09-15T09:25:26.555Z,10.57
2018-09-15T09:27:55.599Z,7.73
2018-09-15T09:30:26.600Z,8.90
2018-09-15T09:32:54.871Z,8.93
2018-09-15T09:35:23.140Z,13.03
2018-09-15T09:37:51.410Z,9.83
2018-09-15T09:40:19.678Z,10.87
2018-09-15T09:42:47.952Z,6.77
2018-09-15T09:45:16.236Z,10.67
2018-09-15T09:47:44.699Z,12.17
2018-09-15T09:50:12.936Z,6.87
2018-09-15T09:52:41.943Z,8.47
2018-09-15T09:55:10.254Z,7.30
2018-09-15T09:57:38.498Z,8.77
2018-09-15T10:00:06.782Z,8.50
2018-09-15T10:02:35.255Z,8.00
2018-09-15T10:05:03.498Z,8.43
2018-09-15T10:07:32.510Z,8.90
2018-09-15T10:10:00.780Z,6.80
2018-09-15T10:12:29.807Z,8.53
2018-09-15T10:14:58.110Z,8.93
2018-09-15T10:17:26.342Z,6.00
2018-09-15T10:19:54.602Z,5.90
2018-09-15T10:22:23.776Z,10.47
2018-09-15T10:24:52.786Z,7.27
2018-09-15T10:27:21.812Z,7.77
2018-09-15T10:29:50.062Z,6.83
2018-09-15T10:32:18.318Z,6.80
2018-09-15T10:34:47.686Z,7.87
2018-09-15T10:37:15.927Z,6.77
2018-09-15T10:39:44.168Z,8.13
2018-09-15T10:42:13.202Z,7.47
2018-09-15T10:44:41.480Z,6.33
2018-09-15T10:47:09.738Z,7.23
2018-09-15T10:49:38.007Z,5.50
2018-09-15T10:52:06.261Z,6.73
2018-09-15T10:54:35.275Z,5.97
2018-09-15T10:57:03.540Z,4.03
2018-09-15T10:59:32.559Z,10.30
2018-09-15T11:02:01.451Z,5.50
2018-09-15T11:04:29.707Z,4.67
2018-09-15T11:06:57.967Z,6.20
2018-09-15T11:09:27.013Z,4.23
2018-09-15T11:11:55.263Z,7.57
2018-09-15T11:14:23.506Z,5.20
2018-09-15T11:16:52.861Z,5.13
2018-09-15T11:19:21.095Z,4.00
2018-09-15T11:21:49.354Z,5.00
2018-09-15T11:24:18.437Z,6.67
2018-09-15T11:26:46.679Z,5.27
2018-09-15T11:29:14.958Z,5.63
2018-09-15T11:31:43.204Z,3.27
2018-09-15T11:34:11.521Z,9.03
2018-09-15T11:36:39.710Z,5.53
2018-09-15T11:39:07.962Z,7.47
2018-09-15T11:41:36.237Z,7.00
2018-09-15T11:44:04.486Z,5.03
2018-09-15T11:46:32.758Z,4.63
2018-09-15T11:49:01.311Z,6.67
2018-09-15T11:51:30.343Z,4.30
2018-09-15T11:53:58.620Z,5.00
2018-09-15T11:56:26.850Z,5.33
2018-09-15T11:58:55.888Z,4.40
2018-09-15T12:01:24.195Z,3.37
2018-09-15T12:03:52.727Z,5.40
2018-09-15T12:06:20.981Z,4.90
2018-09-15T12:08:49.996Z,3.87
2018-09-15T12:11:18.271Z,6.03
2018-09-15T12:13:46.513Z,5.50
2018-09-15T12:16:15.533Z,4.90
2018-09-15T12:18:43.814Z,4.83
2018-09-15T12:21:12.086Z,4.40
2018-09-15T12:23:40.340Z,3.10
2018-09-15T12:26:08.766Z,4.20
2018-09-15T12:28:37.027Z,5.40
2018-09-15T12:31:05.280Z,6.37
2018-09-15T12:33:33.788Z,3.73
2018-09-15T12:36:01.993Z,2.40
2018-09-15T12:38:30.265Z,5.33
2018-09-15T12:40:58.537Z,4.30
2018-09-15T12:43:26.786Z,4.63
2018-09-15T12:45:55.346Z,5.07
2018-09-15T12:48:23.624Z,6.07
2018-09-15T12:50:51.861Z,3.57
2018-09-15T12:53:20.894Z,4.20
2018-09-15T12:55:49.139Z,5.53
2018-09-15T12:58:18.933Z,5.20
2018-09-15T13:00:47.214Z,7.80
2018-09-15T13:03:15.436Z,4.60
2018-09-15T13:05:43.868Z,4.67
2018-09-15T13:08:12.896Z,2.57
2018-09-15T13:10:41.139Z,4.57
2018-09-15T13:13:10.473Z,3.03
2018-09-15T13:15:38.827Z,3.97
2018-09-15T13:18:06.999Z,4.87
2018-09-15T13:20:36.059Z,3.53
2018-09-15T13:23:04.298Z,5.13
2018-09-15T13:25:32.554Z,3.17
2018-09-15T13:28:00.862Z,3.00
2018-09-15T13:30:29.110Z,5.23
2018-09-15T13:32:57.390Z,4.73
2018-09-15T13:35:25.632Z,6.40
2018-09-15T13:37:54.689Z,4.37
2018-09-15T13:40:22.911Z,3.90
2018-09-15T13:42:51.917Z,3.07
2018-09-15T13:45:20.188Z,3.37
2018-09-15T13:47:48.438Z,4.07
2018-09-15T13:50:17.484Z,5.50
2018-09-15T13:52:45.739Z,5.57
2018-09-15T13:55:14.752Z,6.53
2018-09-15T13:57:43.018Z,3.63
2018-09-15T14:00:11.277Z,4.80
2018-09-15T14:02:39.561Z,3.30
2018-09-15T14:05:07.883Z,2.70
2018-09-15T14:07:36.119Z,6.13
2018-09-15T14:10:07.049Z,3.40
2018-09-15T14:12:33.585Z,3.07
2018-09-15T14:15:01.842Z,4.60
2018-09-15T14:17:30.110Z,2.93
2018-09-15T14:19:59.124Z,5.63
2018-09-15T14:22:27.384Z,7.37
2018-09-15T14:24:55.909Z,3.50
2018-09-15T14:27:24.181Z,2.50
2018-09-15T14:29:52.448Z,5.80
2018-09-15T14:32:20.691Z,5.30
2018-09-15T14:34:49.337Z,5.47
2018-09-15T14:37:17.570Z,4.53
2018-09-15T14:39:45.861Z,9.47
2018-09-15T14:42:14.125Z,3.10
2018-09-15T14:44:42.374Z,4.63
2018-09-15T14:47:11.383Z,2.67
2018-09-15T14:49:39.655Z,3.40
2018-09-15T14:52:07.919Z,4.50
2018-09-15T14:54:36.201Z,2.77
2018-09-15T14:57:05.514Z,4.07
2018-09-15T14:59:33.827Z,2.93
2018-09-15T15:02:02.135Z,4.57
2018-09-15T15:04:31.155Z,3.60
2018-09-15T15:06:59.531Z,4.07
2018-09-15T15:09:27.806Z,2.73
2018-09-15T15:11:56.067Z,3.17
2018-09-15T15:14:24.323Z,4.23
2018-09-15T15:16:52.773Z,2.57
2018-09-15T15:19:21.028Z,2.30
2018-09-15T15:21:50.067Z,4.47
2018-09-15T15:24:19.306Z,3.73
2018-09-15T15:26:47.554Z,2.83
2018-09-15T15:29:16.579Z,3.57
2018-09-15T15:31:44.911Z,3.00
2018-09-15T15:34:13.090Z,3.53
2018-09-15T15:36:42.318Z,2.77
2018-09-15T15:39:10.559Z,7.17
2018-09-15T15:41:39.583Z,2.73
2018-09-15T15:44:07.895Z,6.50
2018-09-15T15:46:36.211Z,4.10
2018-09-15T15:49:04.422Z,6.13
2018-09-15T15:51:32.767Z,3.03
2018-09-15T15:54:00.962Z,4.93
2018-09-15T15:56:29.239Z,5.07
2018-09-15T15:58:57.524Z,4.07
2018-09-15T16:01:26.786Z,4.67
2018-09-15T16:03:55.022Z,4.43
2018-09-15T16:06:23.292Z,5.30
2018-09-15T16:08:52.334Z,3.33
2018-09-15T16:11:21.338Z,3.70
2018-09-15T16:13:50.400Z,5.33
2018-09-15T16:16:18.639Z,7.33
2018-09-15T16:18:46.904Z,5.90
2018-09-15T16:21:15.166Z,2.87
2018-09-15T16:23:43.446Z,4.27
2018-09-15T16:26:11.695Z,4.60
2018-09-15T16:28:40.733Z,2.90
2018-09-15T16:31:08.975Z,3.70
2018-09-15T16:33:37.262Z,4.23
2018-09-15T16:36:05.539Z,5.20
2018-09-15T16:38:33.793Z,7.50
2018-09-15T16:41:02.072Z,1.93
2018-09-15T16:43:30.324Z,6.03
2018-09-15T16:45:59.366Z,5.27
2018-09-15T16:48:27.740Z,4.90
2018-09-15T16:50:56.008Z,3.50
2018-09-15T16:53:24.264Z,4.00
2018-09-15T16:55:52.550Z,4.30
2018-09-15T16:58:20.817Z,4.80
2018-09-15T17:00:49.058Z,3.90
2018-09-15T17:03:17.424Z,4.37
2018-09-15T17:05:45.675Z,4.27
2018-09-15T17:08:14.074Z,4.07
2018-09-15T17:10:42.335Z,4.73
2018-09-15T17:13:10.596Z,4.10
2018-09-15T17:15:38.861Z,3.57
2018-09-15T17:18:07.130Z,3.87
2018-09-15T17:20:35.586Z,4.17
2018-09-15T17:23:04.595Z,5.03
2018-09-15T17:25:32.836Z,6.57
2018-09-15T17:28:01.866Z,7.40
2018-09-15T17:30:30.111Z,4.93
2018-09-15T17:32:59.235Z,4.80
2018-09-15T17:35:27.485Z,5.43
2018-09-15T17:37:56.551Z,4.33
2018-09-15T17:40:24.838Z,3.53
2018-09-15T17:42:53.079Z,6.10
2018-09-15T17:45:21.699Z,3.63
2018-09-15T17:47:50.611Z,4.13
2018-09-15T17:50:18.866Z,3.40
2018-09-15T17:52:47.295Z,4.90
2018-09-15T17:55:15.531Z,3.30
2018-09-15T17:57:44.547Z,3.73
2018-09-15T18:00:12.831Z,6.00
2018-09-15T18:02:41.115Z,5.63
2018-09-15T18:05:09.363Z,4.33
2018-09-15T18:07:37.674Z,2.97
2018-09-15T18:10:05.986Z,3.47
2018-09-15T18:12:34.265Z,5.87
2018-09-15T18:15:02.552Z,2.80
2018-09-15T18:17:32.395Z,5.07
2018-09-15T18:20:01.086Z,3.00
2018-09-15T18:22:30.084Z,5.13
2018-09-15T18:24:58.334Z,2.80
2018-09-15T18:27:26.607Z,6.40
2018-09-15T18:29:54.867Z,4.50
2018-09-15T18:32:23.899Z,3.63
2018-09-15T18:34:52.174Z,3.53
2018-09-15T18:37:20.429Z,5.10
2018-09-15T18:39:48.675Z,4.30
2018-09-15T18:42:17.813Z,4.13
2018-09-15T18:44:46.063Z,2.40
2018-09-15T18:47:15.097Z,5.40
2018-09-15T18:49:43.381Z,3.90
2018-09-15T18:52:11.646Z,3.97
2018-09-15T18:54:39.904Z,4.43
2018-09-15T18:57:08.166Z,2.50
2018-09-15T18:59:36.437Z,2.47
2018-09-15T19:02:04.736Z,2.67
2018-09-15T19:04:32.972Z,3.10
2018-09-15T19:07:02.008Z,4.10
2018-09-15T19:09:30.274Z,2.80
2018-09-15T19:11:58.502Z,4.80
2018-09-15T19:14:27.538Z,5.10
2018-09-15T19:16:55.787Z,5.20
2018-09-15T19:19:24.031Z,2.70
2018-09-15T19:21:52.298Z,8.10
2018-09-15T19:24:20.558Z,3.60
2018-09-15T19:26:49.013Z,3.73
2018-09-15T19:29:17.934Z,3.50
2018-09-15T19:31:46.177Z,5.13
2018-09-15T19:34:14.473Z,3.97
2018-09-15T19:36:43.745Z,3.37
2018-09-15T19:39:12.051Z,6.10
2018-09-15T19:41:40.254Z,3.20
2018-09-15T19:44:08.635Z,3.33
2018-09-15T19:46:37.031Z,3.07
2018-09-15T19:49:05.251Z,2.90
2018-09-15T19:51:34.270Z,3.33
2018-09-15T19:54:02.531Z,4.03
2018-09-15T19:56:30.784Z,4.83
2018-09-15T19:58:59.079Z,3.53
2018-09-15T20:01:27.341Z,3.97
2018-09-15T20:03:55.591Z,3.23
2018-09-15T20:06:23.864Z,2.23
2018-09-15T20:08:52.130Z,3.47
2018-09-15T20:11:20.398Z,4.77
2018-09-15T20:13:49.409Z,4.00
2018-09-15T20:16:17.171Z,5.90
2018-09-15T20:18:45.102Z,3.33
2018-09-15T20:21:13.637Z,4.03
2018-09-15T20:23:41.879Z,2.47
2018-09-15T20:26:10.182Z,4.07
2018-09-15T20:28:38.451Z,5.07
2018-09-15T20:31:06.702Z,4.03
2018-09-15T20:33:35.714Z,3.73
2018-09-15T20:36:04.019Z,6.97
2018-09-15T20:38:32.273Z,5.13
2018-09-15T20:41:00.527Z,3.10
2018-09-15T20:43:30.348Z,4.97
2018-09-15T20:45:59.356Z,4.23
2018-09-15T20:48:27.598Z,5.10
2018-09-15T20:50:56.626Z,4.83
2018-09-15T20:53:24.938Z,4.70
2018-09-15T20:55:53.202Z,4.03
2018-09-15T20:58:21.961Z,4.60
2018-09-15T21:00:50.194Z,3.90
2018-09-15T21:03:19.214Z,6.13
2018-09-15T21:05:47.627Z,5.33
2018-09-15T21:08:15.889Z,6.93
2018-09-15T21:10:44.161Z,5.37
2018-09-15T21:13:12.432Z,3.53
2018-09-15T21:15:40.671Z,3.37
2018-09-15T21:18:09.723Z,4.10
2018-09-15T21:20:37.978Z,4.67
2018-09-15T21:23:06.262Z,4.93
2018-09-15T21:25:34.525Z,4.10
2018-09-15T21:28:02.775Z,4.07
2018-09-15T21:30:31.033Z,5.93
2018-09-15T21:33:00.062Z,11.87
2018-09-15T21:35:28.316Z,4.13
2018-09-15T21:37:56.574Z,5.83
2018-09-15T21:40:25.583Z,3.80
2018-09-15T21:42:53.833Z,4.83
2018-09-15T21:45:22.995Z,4.37
2018-09-15T21:47:51.234Z,4.00
2018-09-15T21:50:19.478Z,4.87
2018-09-15T21:52:48.642Z,6.50
2018-09-15T21:55:16.898Z,4.70
2018-09-15T21:57:45.153Z,3.67
2018-09-15T22:00:14.164Z,4.30
2018-09-15T22:02:42.402Z,6.33
2018-09-15T22:05:11.434Z,4.67
2018-09-15T22:07:39.671Z,5.23
2018-09-15T22:10:08.806Z,3.73
2018-09-15T22:12:37.125Z,8.00
2018-09-15T22:15:05.366Z,4.83
2018-09-15T22:17:33.602Z,3.17
2018-09-15T22:20:01.878Z,4.17
2018-09-15T22:22:30.156Z,5.13
2018-09-15T22:24:58.527Z,3.27
2018-09-15T22:27:26.788Z,5.03
2018-09-15T22:29:55.797Z,4.80
2018-09-15T22:32:24.061Z,7.50
2018-09-15T22:34:53.093Z,4.87
2018-09-15T22:37:21.414Z,4.90
2018-09-15T22:39:49.633Z,3.20
2018-09-15T22:42:17.880Z,4.67
2018-09-15T22:44:46.902Z,4.07
2018-09-15T22:47:15.157Z,2.87
2018-09-15T22:49:43.429Z,4.80
2018-09-15T22:52:12.032Z,7.73
2018-09-15T22:54:40.269Z,6.77
2018-09-15T22:57:09.273Z,3.83
2018-09-15T22:59:38.294Z,4.47
2018-09-15T23:02:06.553Z,3.97
2018-09-15T23:04:35.570Z,4.30
2018-09-15T23:07:03.830Z,4.53
2018-09-15T23:09:32.107Z,5.60
2018-09-15T23:12:00.342Z,3.73
2018-09-15T23:17:04.810Z,4.17
2018-09-15T23:19:33.082Z,5.20
2018-09-15T23:22:01.329Z,5.60
2018-09-15T23:24:30.358Z,3.97
2018-09-15T23:26:58.864Z,5.57
2018-09-15T23:29:27.115Z,6.37
2018-09-15T23:31:55.362Z,5.10
2018-09-15T23:34:24.398Z,7.67
2018-09-15T23:36:52.646Z,3.97
2018-09-15T23:39:21.055Z,6.17
2018-09-15T23:41:49.307Z,3.30
2018-09-15T23:44:17.560Z,9.67
2018-09-15T23:46:46.627Z,5.20
2018-09-15T23:49:14.895Z,9.00
2018-09-15T23:51:43.134Z,5.23
2018-09-15T23:54:11.395Z,6.13
2018-09-15T23:56:39.631Z,5.50
2018-09-15T23:59:08.037Z,6.20
